createdAt,value
2023-02-25T00:02:02.966Z,23.00
2023-02-25T00:04:32.837Z,19.00
2023-02-25T00:07:02.815Z,21.00
2023-02-25T00:09:32.325Z,19.33
2023-02-25T00:12:01.562Z,19.67
2023-02-25T00:14:31.015Z,19.67
2023-02-25T00:17:02.370Z,22.00
2023-02-25T00:19:31.124Z,21.33
2023-02-25T00:22:00.796Z,15.33
2023-02-25T00:24:30.261Z,19.00
2023-02-25T00:26:59.100Z,20.67
2023-02-25T00:29:27.784Z,17.00
2023-02-25T00:31:56.952Z,21.67
2023-02-25T00:34:26.608Z,18.00
2023-02-25T00:36:55.310Z,23.00
2023-02-25T00:39:24.850Z,22.67
2023-02-25T00:41:54.113Z,22.67
2023-02-25T00:44:23.524Z,22.00
2023-02-25T00:46:53.043Z,21.00
2023-02-25T00:49:32.489Z,21.67
2023-02-25T00:52:01.705Z,20.67
2023-02-25T00:54:31.164Z,22.00
2023-02-25T00:57:00.997Z,21.00
2023-02-25T00:59:30.600Z,19.67
2023-02-25T01:01:59.571Z,23.00
2023-02-25T01:04:28.243Z,21.33
2023-02-25T01:06:57.955Z,22.33
2023-02-25T01:09:26.757Z,22.67
2023-02-25T01:11:56.179Z,19.33
2023-02-25T01:14:26.567Z,19.33
2023-02-25T01:16:57.942Z,22.00
2023-02-25T01:19:28.074Z,16.00
2023-02-25T01:21:59.097Z,20.00
2023-02-25T01:24:32.296Z,20.67
2023-02-25T01:27:03.508Z,20.00
2023-02-25T01:29:39.438Z,23.00
2023-02-25T01:32:14.231Z,23.00
2023-02-25T01:34:43.071Z,22.67
2023-02-25T01:37:12.637Z,20.00
2023-02-25T01:39:42.199Z,18.00
2023-02-25T01:42:19.108Z,22.00
2023-02-25T01:45:19.220Z,22.00
2023-02-25T01:48:16.232Z,22.00
2023-02-25T01:51:04.138Z,21.33
2023-02-25T01:53:47.045Z,21.00
2023-02-25T01:56:21.234Z,23.00
2023-02-25T01:58:50.935Z,15.00
2023-02-25T02:01:26.840Z,20.67
2023-02-25T02:03:57.009Z,23.00
2023-02-25T02:06:40.167Z,22.67
2023-02-25T02:09:15.010Z,8.00
2023-02-25T02:11:43.668Z,21.33
2023-02-25T02:14:23.985Z,21.00
2023-02-25T02:17:33.123Z,21.00
2023-02-25T02:20:23.242Z,21.00
2023-02-25T02:24:02.710Z,23.00
2023-02-25T02:27:00.778Z,20.00
2023-02-25T02:29:58.185Z,23.00
2023-02-25T02:33:13.365Z,20.00
2023-02-25T02:36:19.653Z,22.33
2023-02-25T02:39:05.151Z,21.50
2023-02-25T02:41:39.642Z,18.33
2023-02-25T02:44:41.288Z,19.00
2023-02-25T02:47:34.761Z,21.67
2023-02-25T02:50:34.647Z,20.00
2023-02-25T02:53:33.375Z,17.00
2023-02-25T02:56:08.293Z,15.33
2023-02-25T02:58:48.998Z,20.00
2023-02-25T03:01:30.314Z,16.00
2023-02-25T03:04:15.771Z,19.67
2023-02-25T03:06:52.474Z,19.00
2023-02-25T03:09:44.005Z,21.33
2023-02-25T03:12:12.992Z,13.50
2023-02-25T03:14:42.832Z,19.67
2023-02-25T03:17:31.973Z,18.00
2023-02-25T03:20:34.924Z,19.00
2023-02-25T03:23:14.637Z,21.00
2023-02-25T03:25:53.227Z,18.00
2023-02-25T03:28:33.507Z,19.00
2023-02-25T03:31:33.459Z,18.67
2023-02-25T03:34:19.122Z,18.00
2023-02-25T03:36:57.293Z,20.00
2023-02-25T03:39:36.715Z,19.00
2023-02-25T03:42:12.416Z,18.00
2023-02-25T03:44:51.115Z,21.00
2023-02-25T03:47:24.068Z,17.67
2023-02-25T03:50:37.848Z,18.67
2023-02-25T03:53:07.523Z,20.33
2023-02-25T03:55:37.024Z,19.67
2023-02-25T03:58:09.362Z,19.33
2023-02-25T04:00:41.812Z,23.67
2023-02-25T04:03:12.732Z,27.33
2023-02-25T04:05:42.167Z,22.33
2023-02-25T04:08:19.599Z,21.00
2023-02-25T04:10:48.365Z,25.67
2023-02-25T04:13:21.016Z,21.67
2023-02-25T04:15:50.808Z,18.00
2023-02-25T04:18:20.290Z,18.00
2023-02-25T04:20:49.772Z,20.00
2023-02-25T04:23:18.392Z,15.50
2023-02-25T04:25:47.884Z,16.33
2023-02-25T04:28:17.375Z,17.33
2023-02-25T04:30:46.108Z,18.00
2023-02-25T04:33:14.933Z,14.00
2023-02-25T04:35:44.441Z,19.00
2023-02-25T04:38:13.916Z,17.00
2023-02-25T04:40:42.513Z,18.00
2023-02-25T04:43:11.496Z,16.00
2023-02-25T04:45:40.155Z,18.00
2023-02-25T04:48:09.636Z,16.67
2023-02-25T04:50:39.089Z,16.00
2023-02-25T04:53:07.690Z,17.33
2023-02-25T04:55:37.085Z,14.50
2023-02-25T04:58:05.975Z,16.00
2023-02-25T05:00:35.408Z,20.75
2023-02-25T05:03:04.813Z,21.50
2023-02-25T05:05:33.442Z,19.00
2023-02-25T05:08:04.464Z,19.00
2023-02-25T05:10:33.864Z,18.00
2023-02-25T05:13:02.510Z,18.00
2023-02-25T05:15:31.248Z,18.50
2023-02-25T05:18:00.785Z,19.67
2023-02-25T05:20:29.579Z,19.00
2023-02-25T05:22:59.044Z,19.67
2023-02-25T05:25:27.814Z,20.00
2023-02-25T05:27:57.316Z,22.00
2023-02-25T05:30:26.110Z,19.67
2023-02-25T05:32:55.410Z,15.50
2023-02-25T05:35:25.442Z,23.00
2023-02-25T05:37:54.870Z,23.00
2023-02-25T05:40:24.538Z,23.33
2023-02-25T05:42:53.277Z,23.00
2023-02-25T05:45:21.951Z,23.00
2023-02-25T05:47:51.472Z,22.33
2023-02-25T05:50:20.193Z,15.00
2023-02-25T05:52:48.846Z,25.00
2023-02-25T05:55:18.030Z,23.67
2023-02-25T05:57:47.533Z,25.00
2023-02-25T06:00:21.566Z,23.33
2023-02-25T06:02:51.265Z,20.33
2023-02-25T06:05:19.906Z,20.67
2023-02-25T06:07:48.560Z,16.00
2023-02-25T06:10:18.320Z,18.00
2023-02-25T06:12:47.932Z,13.00
2023-02-25T06:15:16.700Z,13.50
2023-02-25T06:17:45.563Z,11.67
2023-02-25T06:20:16.660Z,9.00
2023-02-25T06:22:45.300Z,12.00
2023-02-25T06:25:13.899Z,8.67
2023-02-25T06:27:43.313Z,18.00
2023-02-25T06:30:12.206Z,11.00
2023-02-25T06:32:40.333Z,11.00
2023-02-25T06:35:09.040Z,10.00
2023-02-25T06:37:38.379Z,10.67
2023-02-25T06:40:08.143Z,9.33
2023-02-25T06:42:35.792Z,5.50
2023-02-25T06:45:06.674Z,8.00
2023-02-25T06:47:35.193Z,8.67
2023-02-25T06:50:03.907Z,1.25
2023-02-25T06:52:32.809Z,8.00
2023-02-25T06:55:00.590Z,9.50
2023-02-25T06:57:29.045Z,2.00
2023-02-25T06:59:57.568Z,3.00
2023-02-25T07:02:28.361Z,4.67
2023-02-25T07:04:56.995Z,2.75
2023-02-25T07:07:24.980Z,4.00
2023-02-25T07:09:52.592Z,2.00
2023-02-25T07:12:20.330Z,1.50
2023-02-25T07:14:49.378Z,2.75
2023-02-25T07:17:17.085Z,4.00
2023-02-25T07:19:44.759Z,5.00
2023-02-25T07:22:19.586Z,3.50
2023-02-25T07:24:47.294Z,3.00
2023-02-25T07:27:15.112Z,5.00
2023-02-25T07:29:44.622Z,5.00
2023-02-25T07:32:12.488Z,3.50
2023-02-25T07:34:40.293Z,4.00
2023-02-25T07:37:07.972Z,5.00
2023-02-25T07:39:39.627Z,5.00
2023-02-25T07:42:09.177Z,5.60
2023-02-25T07:44:37.175Z,8.00
2023-02-25T07:47:04.999Z,7.00
2023-02-25T07:49:33.719Z,4.75
2023-02-25T07:52:01.450Z,3.00
2023-02-25T07:54:29.200Z,2.50
2023-02-25T07:56:57.591Z,3.00
2023-02-25T07:59:26.161Z,1.00
2023-02-25T08:01:54.724Z,1.00
2023-02-25T08:04:22.621Z,5.00
2023-02-25T08:06:51.710Z,3.00
2023-02-25T08:09:19.419Z,3.00
2023-02-25T08:11:47.145Z,2.00
2023-02-25T08:14:14.863Z,7.00
2023-02-25T08:16:43.456Z,12.50
2023-02-25T08:19:11.186Z,7.00
2023-02-25T08:21:40.563Z,8.00
2023-02-25T08:24:09.406Z,3.75
2023-02-25T08:26:37.097Z,4.00
2023-02-25T08:29:06.932Z,6.00
2023-02-25T08:31:35.565Z,7.00
2023-02-25T08:34:03.458Z,3.50
2023-02-25T08:36:32.665Z,2.75
2023-02-25T08:39:01.765Z,3.00
2023-02-25T08:41:31.097Z,4.00
2023-02-25T08:44:01.455Z,2.00
2023-02-25T08:46:32.947Z,1.00
2023-02-25T08:49:01.536Z,4.00
2023-02-25T08:51:38.706Z,4.00
2023-02-25T08:54:13.148Z,15.50
2023-02-25T08:56:44.661Z,5.00
2023-02-25T08:59:16.261Z,9.50
2023-02-25T09:01:45.371Z,11.00
2023-02-25T09:04:23.510Z,9.00
2023-02-25T09:06:53.961Z,4.50
2023-02-25T09:09:22.997Z,6.00
2023-02-25T09:11:54.464Z,4.00
2023-02-25T09:14:23.273Z,5.00
2023-02-25T09:16:51.260Z,5.00
2023-02-25T09:19:20.908Z,7.00
2023-02-25T09:21:49.296Z,2.00
2023-02-25T09:24:18.663Z,4.00
2023-02-25T09:26:49.470Z,13.50
2023-02-25T09:29:17.595Z,13.00
2023-02-25T09:31:45.528Z,10.00
2023-02-25T09:34:15.398Z,8.00
2023-02-25T09:36:43.738Z,5.00
2023-02-25T09:39:13.389Z,10.00
2023-02-25T09:41:49.676Z,8.00
2023-02-25T09:44:51.411Z,5.00
2023-02-25T09:47:44.809Z,5.00
2023-02-25T09:50:42.350Z,8.00
2023-02-25T09:53:28.080Z,4.00
2023-02-25T09:55:57.101Z,7.00
2023-02-25T09:58:37.806Z,4.00
2023-02-25T10:01:11.559Z,4.00
2023-02-25T10:03:56.070Z,4.00
2023-02-25T10:06:47.342Z,4.50
2023-02-25T10:09:26.704Z,5.00
2023-02-25T10:12:36.265Z,5.00
2023-02-25T10:15:32.104Z,3.00
2023-02-25T10:18:26.589Z,4.50
2023-02-25T10:21:16.467Z,3.50
2023-02-25T10:24:44.578Z,5.00
2023-02-25T10:28:01.171Z,3.50
2023-02-25T10:30:59.431Z,7.00
2023-02-25T10:33:33.851Z,3.00
2023-02-25T10:36:17.265Z,5.00
2023-02-25T10:38:52.156Z,3.00
2023-02-25T10:41:30.606Z,4.00
2023-02-25T10:44:00.047Z,5.80
2023-02-25T10:46:42.903Z,5.00
2023-02-25T10:49:26.520Z,4.50
2023-02-25T10:52:18.027Z,4.50
2023-02-25T10:54:52.226Z,5.00
2023-02-25T10:57:40.747Z,8.00
2023-02-25T11:00:36.472Z,3.00
2023-02-25T11:03:06.176Z,2.00
2023-02-25T11:05:37.175Z,5.00
2023-02-25T11:08:26.718Z,4.00
2023-02-25T11:11:25.861Z,4.00
2023-02-25T11:14:05.555Z,5.00
2023-02-25T11:16:39.549Z,7.80
2023-02-25T11:19:31.758Z,8.00
2023-02-25T11:22:16.962Z,8.00
2023-02-25T11:24:47.188Z,5.00
2023-02-25T11:27:38.601Z,8.50
2023-02-25T11:30:26.093Z,9.00
2023-02-25T11:32:58.063Z,7.40
2023-02-25T11:35:38.029Z,8.50
2023-02-25T11:38:38.428Z,10.33
2023-02-25T11:41:22.758Z,10.00
2023-02-25T11:43:51.512Z,8.00
2023-02-25T11:46:31.232Z,6.00
2023-02-25T11:49:29.483Z,11.00
2023-02-25T11:52:17.172Z,5.00
2023-02-25T11:54:58.076Z,5.00
2023-02-25T11:57:42.242Z,4.00
2023-02-25T12:00:46.066Z,3.00
2023-02-25T12:03:48.400Z,2.50
2023-02-25T12:07:08.543Z,2.57
2023-02-25T12:10:22.341Z,6.00
2023-02-25T12:13:13.759Z,1.00
2023-02-25T12:16:24.844Z,3.00
2023-02-25T12:19:45.615Z,1.00
2023-02-25T12:23:18.870Z,1.00
2023-02-25T12:26:37.174Z,1.00
2023-02-25T12:29:33.278Z,1.00
2023-02-25T12:32:58.678Z,0.00
2023-02-25T12:36:12.434Z,1.00
2023-02-25T12:39:38.265Z,1.25
2023-02-25T12:42:52.188Z,5.00
2023-02-25T12:46:03.221Z,1.00
2023-02-25T12:49:06.131Z,5.00
2023-02-25T12:51:52.792Z,4.20
2023-02-25T12:55:06.549Z,2.00
2023-02-25T12:58:00.941Z,0.00
2023-02-25T13:01:19.064Z,1.00
2023-02-25T13:04:34.083Z,0.33
2023-02-25T13:07:17.379Z,0.00
2023-02-25T13:10:40.302Z,1.00
2023-02-25T13:14:29.494Z,1.00
2023-02-25T13:17:37.303Z,0.75
2023-02-25T13:20:47.622Z,0.50
2023-02-25T13:23:46.643Z,0.00
2023-02-25T13:27:02.458Z,1.00
2023-02-25T13:30:20.277Z,0.00
2023-02-25T13:33:18.607Z,1.00
2023-02-25T13:36:27.004Z,3.00
2023-02-25T13:39:20.185Z,0.75
2023-02-25T13:42:28.021Z,0.00
2023-02-25T13:45:21.583Z,1.00
2023-02-25T13:48:20.422Z,1.00
2023-02-25T13:51:05.078Z,2.00
2023-02-25T13:54:04.200Z,1.00
2023-02-25T13:57:31.295Z,2.00
2023-02-25T14:00:59.160Z,0.00
2023-02-25T14:04:11.503Z,5.00
2023-02-25T14:07:25.728Z,2.00
2023-02-25T14:10:52.570Z,5.00
2023-02-25T14:14:07.504Z,3.00
2023-02-25T14:17:17.953Z,0.00
2023-02-25T14:20:29.632Z,0.50
2023-02-25T14:23:44.928Z,0.00
2023-02-25T14:27:15.842Z,2.00
2023-02-25T14:30:11.158Z,4.00
2023-02-25T14:33:10.361Z,1.00
2023-02-25T14:36:16.468Z,10.00
2023-02-25T14:39:29.081Z,5.00
2023-02-25T14:42:36.619Z,3.00
2023-02-25T14:45:10.211Z,1.00
2023-02-25T14:48:39.677Z,1.00
2023-02-25T14:51:48.184Z,1.00
2023-02-25T14:55:06.135Z,3.00
2023-02-25T14:58:08.447Z,2.00
2023-02-25T15:00:53.075Z,2.00
2023-02-25T15:03:53.828Z,3.50
2023-02-25T15:07:15.676Z,1.00
2023-02-25T15:10:49.147Z,0.75
2023-02-25T15:14:23.810Z,2.50
2023-02-25T15:17:37.373Z,1.00
2023-02-25T15:20:39.104Z,1.00
2023-02-25T15:23:16.791Z,2.00
2023-02-25T15:26:20.291Z,2.50
2023-02-25T15:28:55.011Z,3.00
2023-02-25T15:31:34.695Z,1.00
2023-02-25T15:34:31.798Z,0.00
2023-02-25T15:37:28.154Z,1.50
2023-02-25T15:40:16.374Z,1.00
2023-02-25T15:43:00.309Z,2.50
2023-02-25T15:45:29.058Z,1.75
2023-02-25T15:48:08.513Z,2.00
2023-02-25T15:50:50.625Z,4.00
2023-02-25T15:53:24.773Z,2.00
2023-02-25T15:56:05.073Z,1.00
2023-02-25T15:58:33.500Z,3.00
2023-02-25T16:01:07.975Z,3.00
2023-02-25T16:03:35.551Z,3.00
2023-02-25T16:06:33.164Z,8.00
2023-02-25T16:09:07.402Z,8.33
2023-02-25T16:11:47.536Z,3.00
2023-02-25T16:14:32.534Z,5.00
2023-02-25T16:17:32.012Z,8.00
2023-02-25T16:20:34.245Z,13.00
2023-02-25T16:23:01.981Z,6.00
2023-02-25T16:26:08.699Z,4.00
2023-02-25T16:29:05.852Z,4.83
2023-02-25T16:31:58.804Z,19.00
2023-02-25T16:34:57.882Z,7.00
2023-02-25T16:38:09.686Z,9.33
2023-02-25T16:40:43.135Z,11.00
2023-02-25T16:43:23.963Z,22.00
2023-02-25T16:46:06.167Z,26.00
2023-02-25T16:48:46.032Z,24.00
2023-02-25T16:51:33.626Z,27.67
2023-02-25T16:54:26.565Z,20.00
2023-02-25T16:57:02.555Z,34.00
2023-02-25T16:59:35.532Z,38.00
2023-02-25T17:02:25.806Z,32.67
2023-02-25T17:04:56.512Z,32.00
2023-02-25T17:07:30.342Z,33.00
2023-02-25T17:10:04.690Z,36.33
2023-02-25T17:12:47.148Z,30.00
2023-02-25T17:15:32.509Z,27.00
2023-02-25T17:18:31.174Z,30.00
2023-02-25T17:21:44.199Z,36.33
2023-02-25T17:24:23.635Z,38.00
2023-02-25T17:26:54.239Z,39.33
2023-02-25T17:29:35.408Z,37.00
2023-02-25T17:32:20.862Z,35.00
2023-02-25T17:34:57.245Z,27.33
2023-02-25T17:37:29.696Z,27.00
2023-02-25T17:40:01.936Z,32.33
2023-02-25T17:42:39.045Z,28.00
2023-02-25T17:45:44.370Z,32.00
2023-02-25T17:48:33.633Z,32.00
2023-02-25T17:51:10.389Z,38.00
2023-02-25T17:53:54.857Z,27.50
2023-02-25T17:56:32.151Z,24.33
2023-02-25T17:59:38.315Z,25.33
2023-02-25T18:02:44.222Z,28.50
2023-02-25T18:05:13.682Z,23.33
2023-02-25T18:08:17.702Z,18.50
2023-02-25T18:11:24.867Z,20.67
2023-02-25T18:13:54.059Z,22.00
2023-02-25T18:16:43.321Z,23.00
2023-02-25T18:19:30.815Z,18.00
2023-02-25T18:21:59.744Z,16.50
2023-02-25T18:24:37.820Z,15.00
2023-02-25T18:27:30.418Z,14.00
2023-02-25T18:30:11.388Z,15.50
2023-02-25T18:32:39.440Z,14.00
2023-02-25T18:35:08.033Z,14.00
2023-02-25T18:37:36.840Z,13.67
2023-02-25T18:40:06.001Z,13.00
2023-02-25T18:42:33.856Z,10.50
2023-02-25T18:45:16.430Z,10.00
2023-02-25T18:47:45.610Z,10.67
2023-02-25T18:50:14.966Z,10.67
2023-02-25T18:52:44.617Z,10.00
2023-02-25T18:55:28.080Z,10.00
2023-02-25T18:57:56.781Z,11.00
2023-02-25T19:00:27.520Z,9.00
2023-02-25T19:03:04.095Z,10.67
2023-02-25T19:05:35.244Z,10.00
2023-02-25T19:08:03.090Z,10.50
2023-02-25T19:10:34.286Z,9.00
2023-02-25T19:13:08.220Z,12.00
2023-02-25T19:15:35.937Z,11.50
2023-02-25T19:18:03.784Z,11.00
2023-02-25T19:20:31.743Z,9.00
2023-02-25T19:23:00.284Z,8.33
2023-02-25T19:25:35.715Z,10.00
2023-02-25T19:28:05.825Z,8.00
2023-02-25T19:30:43.530Z,9.40
2023-02-25T19:33:14.200Z,10.33
2023-02-25T19:35:44.578Z,13.67
2023-02-25T19:38:18.346Z,14.00
2023-02-25T19:40:48.405Z,22.00
2023-02-25T19:43:18.803Z,25.00
2023-02-25T19:45:50.521Z,25.00
2023-02-25T19:48:20.355Z,22.00
2023-02-25T19:50:49.805Z,24.67
2023-02-25T19:53:19.432Z,24.67
2023-02-25T19:55:50.160Z,34.00
2023-02-25T19:58:19.963Z,43.00
2023-02-25T20:00:49.975Z,35.33
2023-02-25T20:03:18.750Z,19.00
2023-02-25T20:05:47.418Z,14.33
2023-02-25T20:08:15.125Z,13.00
2023-02-25T20:10:44.097Z,12.00
2023-02-25T20:13:12.800Z,11.33
2023-02-25T20:15:41.545Z,12.00
2023-02-25T20:18:09.290Z,13.00
2023-02-25T20:20:37.189Z,10.00
2023-02-25T20:23:05.707Z,11.67
2023-02-25T20:25:35.314Z,7.20
2023-02-25T20:28:04.094Z,12.33
2023-02-25T20:30:31.815Z,12.00
2023-02-25T20:33:02.826Z,12.33
2023-02-25T20:35:32.249Z,14.00
2023-02-25T20:38:21.233Z,11.33
2023-02-25T20:40:49.966Z,11.00
2023-02-25T20:43:19.080Z,14.00
2023-02-25T20:45:47.528Z,17.00
2023-02-25T20:48:31.029Z,17.00
2023-02-25T20:51:00.712Z,16.50
2023-02-25T20:53:29.764Z,13.00
2023-02-25T20:55:58.604Z,10.50
2023-02-25T20:58:27.241Z,13.00
2023-02-25T21:00:54.989Z,10.50
2023-02-25T21:03:23.486Z,10.00
2023-02-25T21:05:51.208Z,8.00
2023-02-25T21:08:18.985Z,9.00
2023-02-25T21:10:46.825Z,8.00
2023-02-25T21:13:15.801Z,7.00
2023-02-25T21:15:43.858Z,9.00
2023-02-25T21:18:11.715Z,8.00
2023-02-25T21:20:39.504Z,9.00
2023-02-25T21:23:07.346Z,9.00
2023-02-25T21:25:38.490Z,8.14
2023-02-25T21:28:06.238Z,9.00
2023-02-25T21:30:34.133Z,7.50
2023-02-25T21:33:01.874Z,13.00
2023-02-25T21:35:29.579Z,14.00
2023-02-25T21:37:57.344Z,10.00
2023-02-25T21:40:25.885Z,11.67
2023-02-25T21:42:55.494Z,10.00
2023-02-25T21:45:23.243Z,10.00
2023-02-25T21:47:51.828Z,9.00
2023-02-25T21:50:20.482Z,9.00
2023-02-25T21:52:48.902Z,7.00
2023-02-25T21:55:17.729Z,10.00
2023-02-25T21:57:45.595Z,9.00
2023-02-25T22:00:14.366Z,8.00
2023-02-25T22:02:42.266Z,7.00
2023-02-25T22:05:13.499Z,7.86
2023-02-25T22:07:43.996Z,5.00
2023-02-25T22:10:15.161Z,8.80
2023-02-25T22:12:42.959Z,7.00
2023-02-25T22:15:11.980Z,6.00
2023-02-25T22:17:39.782Z,6.00
2023-02-25T22:20:09.008Z,6.50
2023-02-25T22:22:40.210Z,6.71
2023-02-25T22:25:09.989Z,8.80
2023-02-25T22:27:39.758Z,7.80
2023-02-25T22:30:11.160Z,5.75
2023-02-25T22:32:39.671Z,7.00
2023-02-25T22:35:08.889Z,6.00
2023-02-25T22:37:37.413Z,6.25
2023-02-25T22:40:06.961Z,7.00
2023-02-25T22:42:34.625Z,6.00
2023-02-25T22:45:02.331Z,7.00
2023-02-25T22:47:31.530Z,7.00
2023-02-25T22:50:00.017Z,5.75
2023-02-25T22:52:27.698Z,6.00
2023-02-25T22:54:58.101Z,6.50
2023-02-25T22:57:25.753Z,4.00
2023-02-25T22:59:56.171Z,5.50
2023-02-25T23:02:24.997Z,5.00
2023-02-25T23:04:53.483Z,6.25
2023-02-25T23:07:21.974Z,6.00
2023-02-25T23:09:49.976Z,5.00
2023-02-25T23:12:17.597Z,4.00
2023-02-25T23:14:46.111Z,3.00
2023-02-25T23:17:14.636Z,3.00
2023-02-25T23:19:42.331Z,6.00
2023-02-25T23:22:10.011Z,6.00
2023-02-25T23:24:38.512Z,5.75
2023-02-25T23:27:06.187Z,6.00
2023-02-25T23:29:35.281Z,6.00
2023-02-25T23:32:03.042Z,6.00
2023-02-25T23:34:30.923Z,3.00
2023-02-25T23:37:00.499Z,4.80
2023-02-25T23:39:28.397Z,5.00
2023-02-25T23:41:56.178Z,6.50
2023-02-25T23:44:25.054Z,7.00
2023-02-25T23:46:52.834Z,7.50
2023-02-25T23:49:22.884Z,7.00
2023-02-25T23:51:50.784Z,6.00
2023-02-25T23:54:22.733Z,6.40
2023-02-25T23:56:51.548Z,6.00
2023-02-25T23:59:20.138Z,7.50
